createdAt,value
2023-05-17T00:02:23.916Z,4.47
2023-05-17T00:06:26.925Z,3.77
2023-05-17T00:10:28.468Z,6.20
2023-05-17T00:14:29.944Z,4.60
2023-05-17T00:18:31.490Z,5.27
2023-05-17T00:22:34.514Z,5.67
2023-05-17T00:26:35.984Z,6.53
2023-05-17T00:30:37.662Z,3.70
2023-05-17T00:34:39.119Z,5.67
2023-05-17T00:38:42.075Z,5.30
2023-05-17T00:42:43.583Z,7.10
2023-05-17T00:46:45.001Z,6.80
2023-05-17T00:50:46.980Z,4.20
2023-05-17T00:54:51.482Z,6.57
2023-05-17T00:58:53.647Z,5.40
2023-05-17T01:02:55.170Z,7.60
2023-05-17T01:06:56.758Z,5.73
2023-05-17T01:11:11.701Z,6.77
2023-05-17T01:15:15.547Z,6.27
2023-05-17T01:19:36.282Z,7.30
2023-05-17T01:23:51.429Z,7.07
2023-05-17T01:27:58.355Z,6.90
2023-05-17T01:32:00.767Z,10.53
2023-05-17T01:36:02.500Z,6.33
2023-05-17T01:40:05.452Z,6.73
2023-05-17T01:44:18.209Z,9.07
2023-05-17T01:48:23.673Z,9.03
2023-05-17T01:52:31.763Z,8.10
2023-05-17T01:56:34.764Z,10.43
2023-05-17T02:00:39.627Z,8.07
2023-05-17T02:04:42.769Z,8.23
2023-05-17T02:08:44.226Z,9.40
2023-05-17T02:12:45.851Z,6.83
2023-05-17T02:16:48.919Z,9.33
2023-05-17T02:20:50.375Z,9.03
2023-05-17T02:24:51.838Z,12.07
2023-05-17T02:28:53.530Z,12.77
2023-05-17T02:32:56.547Z,10.90
2023-05-17T02:36:58.095Z,6.97
2023-05-17T02:40:59.546Z,6.70
2023-05-17T02:45:00.960Z,11.00
2023-05-17T02:49:03.870Z,8.90
2023-05-17T02:53:05.414Z,7.43
2023-05-17T02:57:06.932Z,6.07
2023-05-17T03:01:08.395Z,8.27
2023-05-17T03:05:11.352Z,8.73
2023-05-17T03:09:13.171Z,13.43
2023-05-17T03:13:14.650Z,9.10
2023-05-17T03:17:18.926Z,4.90
2023-05-17T03:21:26.750Z,7.10
2023-05-17T03:25:28.621Z,8.73
2023-05-17T03:29:30.212Z,11.20
2023-05-17T03:33:31.856Z,7.00
2023-05-17T03:37:34.832Z,5.13
2023-05-17T03:41:36.325Z,10.43
2023-05-17T03:45:37.769Z,10.30
2023-05-17T03:49:39.285Z,9.30
2023-05-17T03:53:42.310Z,10.57
2023-05-17T03:57:43.740Z,6.07
2023-05-17T04:01:45.373Z,9.70
2023-05-17T04:05:46.896Z,11.43
2023-05-17T04:09:49.678Z,10.77
2023-05-17T04:13:51.167Z,11.63
2023-05-17T04:17:52.834Z,10.43
2023-05-17T04:21:54.391Z,9.60
2023-05-17T04:25:57.276Z,14.20
2023-05-17T04:29:58.784Z,12.93
2023-05-17T04:34:00.323Z,13.87
2023-05-17T04:38:01.881Z,11.27
2023-05-17T04:42:04.796Z,12.83
2023-05-17T04:46:06.376Z,19.50
2023-05-17T04:50:08.301Z,12.83
2023-05-17T04:54:09.762Z,12.17
2023-05-17T04:58:12.553Z,15.40
2023-05-17T05:02:14.021Z,17.93
2023-05-17T05:06:15.496Z,14.13
2023-05-17T05:10:17.241Z,10.20
2023-05-17T05:14:20.129Z,12.80
2023-05-17T05:18:21.738Z,14.77
2023-05-17T05:22:23.420Z,16.53
2023-05-17T05:26:24.992Z,15.93
2023-05-17T05:30:27.801Z,14.20
2023-05-17T05:34:29.284Z,17.70
2023-05-17T05:38:30.841Z,13.20
2023-05-17T05:42:32.318Z,13.23
2023-05-17T05:46:35.092Z,15.33
2023-05-17T05:50:36.613Z,13.63
2023-05-17T05:54:38.118Z,14.03
2023-05-17T05:58:39.678Z,19.63
2023-05-17T06:02:42.550Z,16.63
2023-05-17T06:06:44.187Z,17.13
2023-05-17T06:10:45.863Z,13.63
2023-05-17T06:14:47.388Z,22.87
2023-05-17T06:18:51.410Z,24.83
2023-05-17T06:22:53.288Z,26.57
2023-05-17T06:26:54.699Z,23.37
2023-05-17T06:30:56.129Z,21.83
2023-05-17T06:34:59.134Z,25.23
2023-05-17T06:39:00.631Z,24.30
2023-05-17T06:43:02.285Z,19.83
2023-05-17T06:47:04.038Z,17.20
2023-05-17T06:51:06.892Z,20.33
2023-05-17T06:55:08.784Z,16.40
2023-05-17T06:59:10.234Z,17.37
2023-05-17T07:03:11.758Z,20.47
2023-05-17T07:07:14.711Z,17.40
2023-05-17T07:11:16.119Z,16.30
2023-05-17T07:15:17.629Z,14.53
2023-05-17T07:19:19.339Z,17.80
2023-05-17T07:23:22.132Z,16.63
2023-05-17T07:27:23.697Z,14.90
2023-05-17T07:31:25.149Z,18.40
2023-05-17T07:35:26.738Z,14.37
2023-05-17T07:39:29.769Z,15.67
2023-05-17T07:43:31.229Z,15.13
2023-05-17T07:47:32.796Z,15.23
2023-05-17T07:51:34.450Z,15.33
2023-05-17T07:55:37.250Z,12.13
2023-05-17T07:59:38.685Z,14.97
2023-05-17T08:03:40.164Z,16.93
2023-05-17T08:07:41.778Z,12.97
2023-05-17T08:11:44.507Z,17.93
2023-05-17T08:15:46.057Z,14.90
2023-05-17T08:19:47.971Z,13.13
2023-05-17T08:23:49.507Z,13.33
2023-05-17T08:27:52.434Z,11.43
2023-05-17T08:31:54.559Z,11.10
2023-05-17T08:35:56.273Z,7.77
2023-05-17T08:39:57.869Z,12.20
2023-05-17T08:44:02.215Z,10.20
2023-05-17T08:48:04.554Z,8.37
2023-05-17T08:52:07.874Z,11.67
2023-05-17T08:56:11.270Z,7.43
2023-05-17T09:00:19.307Z,9.20
2023-05-17T09:04:21.100Z,6.93
2023-05-17T09:08:23.238Z,10.50
2023-05-17T09:12:25.784Z,9.67
2023-05-17T09:16:29.628Z,8.80
2023-05-17T09:20:31.275Z,7.67
2023-05-17T09:24:33.132Z,9.40
2023-05-17T09:28:39.851Z,8.93
2023-05-17T09:36:55.724Z,8.87
2023-05-17T09:40:57.241Z,6.73
2023-05-17T09:44:59.185Z,7.03
2023-05-17T09:49:04.294Z,11.87
2023-05-17T09:53:06.159Z,10.70
2023-05-17T09:57:07.763Z,7.87
2023-05-17T10:01:10.038Z,10.90
2023-05-17T10:05:13.355Z,10.67
2023-05-17T10:09:14.821Z,6.80
2023-05-17T10:13:19.136Z,10.70
2023-05-17T10:17:20.756Z,8.90
2023-05-17T10:21:23.837Z,7.93
2023-05-17T10:25:26.003Z,7.63
2023-05-17T10:29:28.872Z,8.77
2023-05-17T10:33:32.039Z,6.87
2023-05-17T10:37:35.413Z,8.60
2023-05-17T10:41:40.353Z,7.23
2023-05-17T10:45:42.396Z,10.80
2023-05-17T10:49:44.549Z,9.10
2023-05-17T10:54:08.902Z,9.07
2023-05-17T10:58:16.471Z,6.00
2023-05-17T11:02:23.853Z,8.33
2023-05-17T11:06:26.004Z,9.27
2023-05-17T11:10:29.043Z,9.30
2023-05-17T11:14:43.531Z,9.97
2023-05-17T11:18:49.864Z,9.97
2023-05-17T11:22:57.779Z,7.90
2023-05-17T11:27:01.561Z,8.43
2023-05-17T11:31:03.305Z,8.80
2023-05-17T11:35:06.103Z,7.47
2023-05-17T11:39:14.213Z,9.30
2023-05-17T11:43:18.490Z,8.47
2023-05-17T11:47:20.043Z,7.67
2023-05-17T11:51:24.690Z,7.97
2023-05-17T11:55:27.314Z,7.30
2023-05-17T11:59:37.021Z,9.90
2023-05-17T12:03:38.627Z,8.25
2023-05-17T12:07:40.148Z,6.47
2023-05-17T12:11:41.719Z,8.43
2023-05-17T12:15:50.083Z,5.97
2023-05-17T12:19:54.905Z,5.77
2023-05-17T12:23:57.405Z,8.43
2023-05-17T12:28:15.803Z,7.03
2023-05-17T12:32:19.022Z,6.13
2023-05-17T12:36:22.197Z,9.02
2023-05-17T12:40:23.992Z,7.50
2023-05-17T12:44:25.628Z,9.00
2023-05-17T12:48:28.599Z,8.53
2023-05-17T12:52:33.999Z,6.20
2023-05-17T12:56:35.607Z,6.50
2023-05-17T13:00:37.127Z,7.50
2023-05-17T13:04:40.149Z,6.68
2023-05-17T13:08:44.059Z,7.95
2023-05-17T13:12:54.905Z,9.52
2023-05-17T13:16:56.469Z,7.70
2023-05-17T13:20:59.256Z,7.23
2023-05-17T13:25:02.901Z,5.77
2023-05-17T13:29:04.412Z,6.93
2023-05-17T13:33:06.231Z,9.87
2023-05-17T13:37:12.141Z,11.03
2023-05-17T13:41:14.109Z,7.83
2023-05-17T13:45:15.882Z,8.80
2023-05-17T13:49:17.599Z,8.30
2023-05-17T13:53:20.534Z,8.43
2023-05-17T13:57:21.973Z,6.10
2023-05-17T14:01:23.421Z,6.37
2023-05-17T14:05:24.945Z,8.73
2023-05-17T14:09:27.802Z,9.60
2023-05-17T14:13:29.327Z,7.07
2023-05-17T14:17:30.898Z,6.27
2023-05-17T14:21:32.704Z,7.53
2023-05-17T14:25:35.628Z,7.33
2023-05-17T14:29:37.087Z,6.23
2023-05-17T14:33:38.690Z,4.47
2023-05-17T14:37:40.390Z,6.90
2023-05-17T14:41:44.880Z,9.43
2023-05-17T14:45:46.633Z,6.80
2023-05-17T14:49:48.121Z,5.10
2023-05-17T14:53:49.603Z,8.67
2023-05-17T14:57:52.401Z,6.37
2023-05-17T15:01:54.133Z,6.93
2023-05-17T15:05:56.294Z,6.03
2023-05-17T15:09:58.991Z,6.63
2023-05-17T15:14:01.784Z,5.93
2023-05-17T15:18:03.516Z,6.80
2023-05-17T15:22:05.184Z,8.77
2023-05-17T15:26:06.951Z,8.23
2023-05-17T15:30:13.214Z,10.27
2023-05-17T15:34:15.048Z,8.47
2023-05-17T15:38:16.610Z,9.03
2023-05-17T15:42:18.096Z,7.00
2023-05-17T15:46:20.957Z,5.83
2023-05-17T15:50:22.964Z,4.93
2023-05-17T15:54:24.622Z,8.27
2023-05-17T15:58:26.699Z,7.27
2023-05-17T16:02:30.220Z,6.53
2023-05-17T16:06:31.709Z,9.57
2023-05-17T16:10:33.299Z,7.20
2023-05-17T16:14:35.632Z,7.50
2023-05-17T16:18:38.586Z,7.83
2023-05-17T16:22:42.319Z,7.20
2023-05-17T16:26:43.792Z,11.40
2023-05-17T16:30:45.348Z,11.50
2023-05-17T16:34:48.143Z,7.90
2023-05-17T16:38:49.597Z,8.33
2023-05-17T16:42:51.008Z,8.17
2023-05-17T16:46:52.501Z,7.47
2023-05-17T16:50:56.134Z,8.07
2023-05-17T16:54:57.831Z,7.33
2023-05-17T16:58:59.354Z,9.67
2023-05-17T17:03:01.229Z,11.80
2023-05-17T17:07:04.422Z,6.87
2023-05-17T17:11:06.104Z,8.30
2023-05-17T17:15:08.854Z,8.23
2023-05-17T17:19:10.548Z,6.27
2023-05-17T17:23:13.321Z,11.47
2023-05-17T17:27:14.734Z,5.50
2023-05-17T17:31:16.184Z,5.77
2023-05-17T17:35:17.648Z,6.23
2023-05-17T17:39:20.535Z,7.53
2023-05-17T17:43:23.616Z,7.47
2023-05-17T17:47:25.180Z,6.83
2023-05-17T17:51:26.733Z,9.77
2023-05-17T17:55:29.554Z,8.60
2023-05-17T17:59:31.056Z,8.17
2023-05-17T18:03:32.543Z,5.77
2023-05-17T18:07:34.172Z,9.70
2023-05-17T18:11:37.010Z,8.53
2023-05-17T18:15:38.567Z,9.53
2023-05-17T18:19:40.029Z,7.03
2023-05-17T18:23:41.489Z,10.70
2023-05-17T18:27:44.278Z,9.40
2023-05-17T18:31:45.869Z,9.40
2023-05-17T18:35:47.403Z,8.27
2023-05-17T18:39:48.878Z,8.07
2023-05-17T18:43:51.765Z,7.80
2023-05-17T18:47:53.392Z,10.73
2023-05-17T18:51:54.847Z,11.53
2023-05-17T18:55:57.946Z,6.60
2023-05-17T19:00:00.796Z,6.17
2023-05-17T19:04:02.616Z,10.70
2023-05-17T19:08:04.207Z,13.60
2023-05-17T19:12:06.544Z,10.43
2023-05-17T19:16:09.441Z,11.37
2023-05-17T19:20:11.533Z,10.97
2023-05-17T19:24:13.003Z,8.73
2023-05-17T19:28:14.442Z,9.80
2023-05-17T19:32:17.513Z,10.67
2023-05-17T19:36:18.992Z,9.07
2023-05-17T19:40:20.841Z,12.23
2023-05-17T19:44:22.342Z,10.80
2023-05-17T19:48:25.400Z,9.97
2023-05-17T19:52:26.885Z,13.17
2023-05-17T19:56:28.454Z,9.37
2023-05-17T20:00:30.197Z,11.03
2023-05-17T20:04:33.212Z,9.27
2023-05-17T20:08:34.716Z,10.50
2023-05-17T20:12:36.259Z,10.30
2023-05-17T20:16:37.808Z,8.93
2023-05-17T20:20:40.784Z,8.53
2023-05-17T20:24:42.291Z,11.87
2023-05-17T20:28:44.325Z,11.07
2023-05-17T20:32:46.528Z,8.93
2023-05-17T20:36:49.302Z,9.53
2023-05-17T20:40:50.792Z,11.00
2023-05-17T20:44:52.293Z,8.40
2023-05-17T20:48:53.772Z,9.00
2023-05-17T20:52:56.557Z,12.57
2023-05-17T20:56:58.467Z,11.63
2023-05-17T21:01:00.089Z,9.57
2023-05-17T21:05:01.641Z,9.63
2023-05-17T21:09:04.861Z,10.33
2023-05-17T21:13:06.533Z,8.57
2023-05-17T21:17:08.137Z,12.83
2023-05-17T21:21:09.620Z,10.87
2023-05-17T21:25:12.530Z,9.77
2023-05-17T21:29:14.063Z,12.67
2023-05-17T21:33:15.678Z,7.90
2023-05-17T21:37:17.176Z,13.50
2023-05-17T21:41:19.982Z,11.13
2023-05-17T21:45:21.587Z,9.13
2023-05-17T21:49:23.110Z,12.40
2023-05-17T21:53:24.552Z,9.20
2023-05-17T21:57:27.365Z,6.47
2023-05-17T22:01:28.848Z,10.60
2023-05-17T22:05:30.439Z,8.47
2023-05-17T22:09:32.035Z,10.40
2023-05-17T22:13:34.876Z,8.10
2023-05-17T22:17:47.821Z,10.67
2023-05-17T22:21:53.720Z,15.03
2023-05-17T22:25:55.208Z,9.67
2023-05-17T22:29:58.230Z,5.93
2023-05-17T22:33:59.794Z,9.23
2023-05-17T22:38:01.452Z,10.57
2023-05-17T22:42:03.302Z,7.23
2023-05-17T22:46:06.506Z,13.50
2023-05-17T22:50:09.399Z,8.07
2023-05-17T22:54:10.940Z,9.93
2023-05-17T22:58:12.347Z,8.53
2023-05-17T23:02:15.203Z,9.10
2023-05-17T23:06:16.801Z,10.17
2023-05-17T23:10:18.271Z,9.10
2023-05-17T23:14:19.701Z,9.43
2023-05-17T23:18:22.572Z,9.17
2023-05-17T23:22:24.217Z,12.33
2023-05-17T23:26:25.676Z,10.27
2023-05-17T23:30:27.354Z,14.03
2023-05-17T23:34:30.106Z,7.20
2023-05-17T23:38:31.540Z,10.67
2023-05-17T23:42:33.158Z,8.50
2023-05-17T23:46:34.625Z,10.23
2023-05-17T23:50:37.741Z,10.73
2023-05-17T23:54:39.420Z,7.07
2023-05-17T23:58:40.835Z,12.80
